• Join FlightAware (Why Join?)
  • Login
  • US Flag 
10:04AM EDT


 

Airport Tracker/Info


-or-


 

Live Flight TrackerFlight Track Log ✈ EJA929 ✈ 16-Mar-2014 ✈ KBFI - KICT

Flight Track Log - Related Links

Times and Time Zones

All times are in EDT time to prevent confusion due to time zone crossing. See the EJA929 flight status page for this flight to view local times or setup timezone preferences in your user account.

Time Position Orientation Groundspeed Altitude Reporting Facility
EDT Latitude Longitude Course Direction KTS MPH feet Rate Location/Type
06:14PM 47.5117 -122.2878 149° Southeast 185 213 1,100  Level Seattle Center
06:15PM 47.4800 -122.2594 149° Southeast 208 239 3,000 2,400 Climbing Seattle Center
06:16PM 47.4550 -122.1781 114° Southeast 247 284 5,000 1,740 Climbing Seattle Center
06:16PM 47.4536 -122.1469 94° East 247 284 5,400 1,680 Climbing Seattle Center
06:17PM 47.4481 -122.0339 94° East 274 315 7,300 2,520 Climbing Seattle Center
06:18PM 47.4403 -121.8983 95° East 302 348 10,500 2,280 Climbing Seattle Center
06:19PM 47.4328 -121.7594 95° East 339 390 12,000 1,500 Climbing Seattle Center
06:20PM 47.4283 -121.6028 92° East 382 440 13,600 1,500 Climbing Seattle Center
06:21PM 47.4106 -121.4408 99° East 400 460 15,100 1,860 Climbing Seattle Center
06:22PM 47.3706 -121.2869 111° Southeast 403 464 17,400 2,100 Climbing Seattle Center
06:23PM 47.3344 -121.1503 111° Southeast 399 459 19,400 2,040 Climbing Seattle Center
06:24PM 47.2964 -120.9983 110° East 397 457 21,600 2,280 Climbing Seattle Center
06:25PM 47.2483 -120.8122 111° Southeast 413 475 24,000 2,100 Climbing Seattle Center
06:26PM 47.2044 -120.6414 111° Southeast 445 512 25,900 1,920 Climbing Seattle Center
06:27PM 47.1575 -120.4603 111° Southeast 471 542 28,000 1,920 Climbing Seattle Center
06:28PM 47.1081 -120.2694 111° Southeast 499 574 29,900 1,860 Climbing Seattle Center
06:29PM 47.0550 -120.0717 111° Southeast 521 600 31,800 1,860 Climbing Seattle Center
06:30PM 47.0006 -119.8669 111° Southeast 539 620 33,700 1,860 Climbing Seattle Center
06:31PM 46.9453 -119.6611 111° Southeast 543 625 35,600 1,920 Climbing Seattle Center
06:32PM 46.8894 -119.4539 111° Southeast 548 631 37,600 1,980 Climbing Seattle Center
06:33PM 46.8319 -119.2478 112° Southeast 550 633 39,600 1,620 Climbing Seattle Center
06:34PM 46.7764 -119.0453 112° Southeast 546 628 40,900 660 Climbing Seattle Center
06:35PM 46.7194 -118.8397 112° Southeast 548 631 41,000  Climbing Seattle Center
06:36PM 46.6469 -118.5789 112° Southeast 575 662 41,000  Level Seattle Center
06:37PM 46.5842 -118.3575 112° Southeast 590 679 41,000  Level Seattle Center
06:38PM 46.5197 -118.1375 113° Southeast 592 681 41,000  Level Seattle Center
06:39PM 46.4561 -117.9150 112° Southeast 596 686 41,000  Level Seattle Center
06:41PM 46.3911 -117.6947 113° Southeast 597 687 41,000 -60 Level Seattle Center
06:42PM 46.3250 -117.4722 113° Southeast 600 690 40,900  Descending Seattle Center
06:43PM 46.2597 -117.2517 113° Southeast 601 692 41,000  Climbing Seattle Center
06:44PM 46.1928 -117.0297 113° Southeast 602 693 41,000 -60 Level Seattle Center
06:45PM 46.1258 -116.8028 113° Southeast 612 704 40,900  Descending Seattle Center
06:46PM 46.0578 -116.5822 114° Southeast 613 705 41,000  Climbing Seattle Center
06:47PM 45.9897 -116.3594 114° Southeast 613 705 41,000  Level Seattle Center
06:48PM 45.9075 -116.0961 114° Southeast 611 703 41,000  Level Seattle Center
06:49PM 45.8386 -115.8825 115° Southeast 601 692 41,000  Level Seattle Center
06:50PM 45.7700 -115.6578 114° Southeast 614 707 41,000  Level Seattle Center
06:51PM 45.6967 -115.4267 114° Southeast 612 704 41,000  Level Seattle Center
06:52PM 45.6258 -115.2100 115° Southeast 604 695 41,000  Level Seattle Center
06:53PM 45.5539 -114.9917 115° Southeast 605 696 41,000  Level Seattle Center
06:54PM 45.4828 -114.7742 115° Southeast 605 696 41,000  Level Seattle Center
06:55PM 45.4119 -114.5578 115° Southeast 605 696 41,000  Level Seattle Center
06:56PM 45.3397 -114.3422 115° Southeast 605 696 41,000  Level Seattle Center
06:57PM 45.2683 -114.1289 115° Southeast 603 694 41,000  Level Seattle Center
06:58PM 45.1967 -113.9189 116° Southeast 596 686 41,000  Level Seattle Center
06:59PM 45.0994 -113.6350 116° Southeast 600 690 41,000  Level Salt Lake Center
07:00PM 45.0192 -113.3992 116° Southeast 599 689 41,000  Level Salt Lake Center
07:01PM 44.9503 -113.1986 116° Southeast 594 684 41,000  Level Salt Lake Center
07:02PM 44.8678 -112.9658 117° Southeast 594 684 41,000  Level Salt Lake Center
07:03PM 44.7978 -112.7669 116° Southeast 594 684 41,000  Level Salt Lake Center
07:04PM 44.7275 -112.5689 116° Southeast 594 684 41,000  Level Salt Lake Center
07:05PM 44.6444 -112.3389 117° Southeast 594 684 41,000  Level Salt Lake Center
07:06PM 44.5742 -112.1417 117° Southeast 593 682 41,000  Level Salt Lake Center
07:07PM 44.4914 -111.9139 117° Southeast 593 682 41,000  Level Salt Lake Center
07:08PM 44.4203 -111.7225 117° Southeast 590 679 41,000  Level Salt Lake Center
07:09PM 44.3381 -111.4986 117° Southeast 590 679 41,000  Level Salt Lake Center
07:10PM 44.2658 -111.3058 118° Southeast 593 682 41,000  Level Salt Lake Center
07:11PM 44.1814 -111.0803 118° Southeast 593 682 41,000  Level Salt Lake Center
07:12PM 44.1083 -110.8881 118° Southeast 591 680 41,000  Level Salt Lake Center
07:13PM 44.0233 -110.6639 118° Southeast 590 679 41,000  Level Salt Lake Center
07:15PM 43.9503 -110.4717 118° Southeast 589 678 41,000  Level Salt Lake Center
07:16PM 43.8631 -110.2481 118° Southeast 590 679 41,000  Level Salt Lake Center
07:17PM 43.7894 -110.0556 118° Southeast 590 679 41,000  Level Salt Lake Center
07:18PM 43.7136 -109.8664 119° Southeast 590 679 41,000  Level Salt Lake Center
07:19PM 43.6267 -109.6478 119° Southeast 586 674 41,000  Level Salt Lake Center
07:20PM 43.5519 -109.4603 119° Southeast 586 674 41,000  Level Salt Lake Center
07:21PM 43.4736 -109.2644 119° Southeast 585 673 41,000  Level Salt Lake Center
07:22PM 43.3953 -109.0697 119° Southeast 586 674 41,000  Level Salt Lake Center
07:23PM 43.2978 -108.8328 119° Southeast 593 682 41,000  Level Salt Lake Center
07:24PM 43.2164 -108.6331 119° Southeast 599 689 41,000  Level Salt Lake Center
07:25PM 43.1353 -108.4358 119° Southeast 600 690 41,000  Level Salt Lake Center
07:26PM 43.0544 -108.2400 119° Southeast 598 688 41,000  Level Salt Lake Center
07:27PM 42.9722 -108.0439 120° Southeast 597 687 41,000  Level Salt Lake Center
07:28PM 42.8869 -107.8411 120° Southeast 596 686 41,000  Level Salt Lake Center
07:29PM 42.7964 -107.6222 119° Southeast 595 685 41,000  Level Salt Lake Center
07:30PM 42.7139 -107.4333 121° Southeast 600 690 41,000  Level Salt Lake Center
07:31PM 42.6333 -107.2433 120° Southeast 600 690 41,000  Level Denver Center
07:32PM 42.5528 -107.0572 120° Southeast 597 687 41,000  Level Denver Center
07:33PM 42.4669 -106.8589 120° Southeast 596 686 41,000  Level Denver Center
07:34PM 42.3717 -106.6431 121° Southeast 597 687 41,000  Level Denver Center
07:35PM 42.2906 -106.4589 121° Southeast 597 687 41,000  Level Denver Center
07:36PM 42.1953 -106.2444 121° Southeast 598 688 41,000  Level Denver Center
07:37PM 42.1147 -106.0633 121° Southeast 596 686 41,100  Climbing Denver Center
07:38PM 42.0214 -105.8597 122° Southeast 579 666 41,000 -60 Descending Denver Center
07:39PM 41.9486 -105.6989 121° Southeast 542 624 41,000  Level Denver Center
07:40PM 41.8675 -105.5164 121° Southeast 516 594 41,000  Level Denver Center
07:41PM 41.7917 -105.3539 122° Southeast 531 611 41,000  Level Denver Center
07:42PM 41.7025 -105.1594 122° Southeast 546 628 41,000  Level Denver Center
07:43PM 41.6253 -104.9933 122° Southeast 548 631 41,000  Level Denver Center
07:44PM 41.5358 -104.7994 122° Southeast 551 634 41,100  Climbing Denver Center
07:45PM 41.4717 -104.6625 122° Southeast 551 634 41,000 -60 Descending Denver Center
07:46PM 41.3669 -104.4419 122° Southeast 556 640 41,000  Level Denver Center
07:47PM 41.2886 -104.2761 122° Southeast 556 640 41,000  Level Denver Center
07:48PM 41.1969 -104.0844 122° Southeast 556 640 41,000  Level Denver Center
07:49PM 41.1167 -103.9169 122° Southeast 558 642 41,000  Level Denver Center
07:50PM 41.0239 -103.7250 123° Southeast 558 642 41,000  Level Denver Center
07:52PM 40.9442 -103.5611 123° Southeast 558 642 41,000  Level Denver Center
07:53PM 40.8603 -103.3894 123° Southeast 557 641 41,000  Level Denver Center
07:54PM 40.7764 -103.2181 123° Southeast 556 640 41,000  Level Denver Center
07:55PM 40.6914 -103.0461 123° Southeast 557 641 41,000  Level Denver Center
07:56PM 40.5897 -102.8419 123° Southeast 557 641 41,000  Level Denver Center
07:57PM 40.5044 -102.6725 123° Southeast 557 641 41,000  Level Denver Center
07:58PM 40.4144 -102.4925 123° Southeast 557 641 41,000  Level Denver Center
07:59PM 40.3328 -102.3314 124° Southeast 557 641 41,000  Level Denver Center
08:00PM 40.2381 -102.1425 123° Southeast 557 641 41,000  Level Denver Center
08:01PM 40.1553 -101.9839 124° Southeast 555 639 41,000  Level Denver Center
08:02PM 40.0611 -101.8008 124° Southeast 548 631 41,000  Level Denver Center
08:03PM 39.9814 -101.6442 124° Southeast 547 629 41,000  Level Denver Center
08:04PM 39.8872 -101.4639 124° Southeast 545 627 41,000  Level Denver Center
08:05PM 39.8069 -101.3083 124° Southeast 545 627 41,000  Level Denver Center
08:06PM 39.7094 -101.1236 124° Southeast 550 633 41,000  Level Denver Center
08:07PM 39.6283 -100.9700 124° Southeast 548 631 41,000  Level Denver Center
08:08PM 39.5331 -100.7897 124° Southeast 547 629 41,000  Level Denver Center
08:09PM 39.4497 -100.6333 125° Southeast 549 632 41,000  Level Denver Center
08:10PM 39.3533 -100.4539 125° Southeast 548 631 41,000  Level Denver Center
08:11PM 39.2694 -100.2994 125° Southeast 548 631 41,000  Level Denver Center
08:12PM 39.1703 -100.1156 125° Southeast 555 639 41,000  Level Denver Center
08:13PM 39.0825 -99.9569 125° Southeast 555 639 41,000  Level Denver Center
08:14PM 38.9967 -99.7994 125° Southeast 557 641 41,000 -780 Level Denver Center
08:15PM 38.8964 -99.6172 125° Southeast 558 642 39,500 -1,500 Descending Denver Center
08:16PM 38.8167 -99.4739 125° Southeast 521 600 37,900 -1,200 Descending Denver Center
08:17PM 38.7200 -99.3011 126° Southeast 527 606 37,000 -420 Descending Kansas City Center
08:19PM 38.6325 -99.1431 125° Southeast 538 619 37,000 -600 Level Kansas City Center
08:20PM 38.5481 -98.9936 126° Southeast 527 606 35,800 -1,380 Descending Kansas City Center
08:21PM 38.4692 -98.8544 126° Southeast 493 567 34,200 -1,740 Descending Kansas City Center
08:22PM 38.3922 -98.7192 126° Southeast 476 548 32,200 -2,940 Descending Kansas City Center
08:23PM 38.3006 -98.5594 126° Southeast 470 541 28,100 -3,780 Descending Kansas City Center
08:24PM 38.2269 -98.4286 126° Southeast 461 531 24,600 -3,660 Descending Kansas City Center
08:24PM 38.1750 -98.3394 127° Southeast 443 510 21,800 -3,840 Descending Kansas City Center
08:25PM 38.1531 -98.3028 127° Southeast 437 503 20,700 -3,360 Descending Kansas City Center
08:26PM 38.0806 -98.1750 126° Southeast 411 473 17,100 -3,180 Descending Kansas City Center
08:27PM 38.0169 -98.0792 130° Southeast 405 466 14,200 -3,420 Descending Kansas City Center
08:27PM 38.0031 -98.0617 135° Southeast 388 447 13,700 -2,640 Descending Kansas City Center
08:28PM 37.9353 -97.9656 132° Southeast 359 413 11,400 -1,860 Descending Kansas City Center
08:29PM 37.8792 -97.8811 130° Southeast 300 345 10,000 -1,680 Descending Kansas City Center
08:30PM 37.8319 -97.8078 129° Southeast 300 345 8,100 -1,920 Descending Kansas City Center
08:31PM 37.7761 -97.7244 130° Southeast 287 330 6,100 -1,800 Descending Kansas City Center
08:31PM 37.7811 -97.7308 315° West 293 337 6,200 -1,200 Climbing Kansas City Center
08:32PM 37.7319 -97.6564 130° Southeast 285 328 4,800 -1,560 Descending Kansas City Center
08:33PM 37.6781 -97.5725 129° Southeast 269 310 3,100 -1,020 Descending Kansas City Center
08:34PM 37.6358 -97.5103 131° Southeast 220 253 2,800 -360 Descending Kansas City Center
08:35PM 37.6150 -97.4686 122° Southeast 130 150 2,400 -420 Descending Kansas City Center
08:35PM 37.6147 -97.4644 95° East 186 214 2,400 -720 Level Kansas City Center
08:36PM 37.6283 -97.4322 62° Northeast 110 127 1,700 -720 Descending Kansas City Center
08:36PM 37.6319 -97.4325 357° North 151 174 1,700 -180 Level Kansas City Center
08:37PM 37.6614 -97.4192 20° North 143 165 1,500 -240 Descending Kansas City Center